sensor_id;sensor_type;location;lat;lon;timestamp;P1;P2;P0
62599;PMS7003;48671;48.922;2.346;2024-03-08T00:00:31;41.25;29.50;17.25
62599;PMS7003;48671;48.922;2.346;2024-03-08T00:02:58;48.25;37.25;22.00
62599;PMS7003;48671;48.922;2.346;2024-03-08T00:05:23;43.50;33.75;21.75
62599;PMS7003;48671;48.922;2.346;2024-03-08T00:07:49;37.33;22.67;13.67
62599;PMS7003;48671;48.922;2.346;2024-03-08T00:10:14;36.75;32.50;19.00
62599;PMS7003;48671;48.922;2.346;2024-03-08T00:12:40;56.50;39.50;23.25
62599;PMS7003;48671;48.922;2.346;2024-03-08T00:15:13;48.75;34.75;22.25
62599;PMS7003;48671;48.922;2.346;2024-03-08T00:17:40;49.50;35.00;23.25
62599;PMS7003;48671;48.922;2.346;2024-03-08T00:20:06;48.75;40.00;23.50
62599;PMS7003;48671;48.922;2.346;2024-03-08T00:22:36;50.50;34.50;23.50
62599;PMS7003;48671;48.922;2.346;2024-03-08T00:25:04;52.50;39.75;25.50
62599;PMS7003;48671;48.922;2.346;2024-03-08T00:27:31;25.25;23.50;15.25
62599;PMS7003;48671;48.922;2.346;2024-03-08T00:29:59;47.50;34.00;20.75
62599;PMS7003;48671;48.922;2.346;2024-03-08T00:32:25;55.00;37.25;21.25
62599;PMS7003;48671;48.922;2.346;2024-03-08T00:34:52;32.00;30.00;17.25
62599;PMS7003;48671;48.922;2.346;2024-03-08T00:37:18;34.25;27.50;17.50
62599;PMS7003;48671;48.922;2.346;2024-03-08T00:39:43;37.50;32.25;18.00
62599;PMS7003;48671;48.922;2.346;2024-03-08T00:42:08;45.25;38.50;23.50
62599;PMS7003;48671;48.922;2.346;2024-03-08T00:44:34;43.75;31.75;20.25
62599;PMS7003;48671;48.922;2.346;2024-03-08T00:46:59;40.00;29.75;15.50
62599;PMS7003;48671;48.922;2.346;2024-03-08T00:49:24;47.75;34.00;21.25
62599;PMS7003;48671;48.922;2.346;2024-03-08T00:51:50;51.50;37.75;26.00
62599;PMS7003;48671;48.922;2.346;2024-03-08T00:54:15;42.00;31.75;18.25
62599;PMS7003;48671;48.922;2.346;2024-03-08T00:56:41;50.25;41.75;23.50
62599;PMS7003;48671;48.922;2.346;2024-03-08T00:59:07;46.75;37.50;22.00
62599;PMS7003;48671;48.922;2.346;2024-03-08T01:01:32;49.00;34.00;21.75
62599;PMS7003;48671;48.922;2.346;2024-03-08T01:03:58;48.50;36.75;20.75
62599;PMS7003;48671;48.922;2.346;2024-03-08T01:06:23;47.25;33.75;21.50
62599;PMS7003;48671;48.922;2.346;2024-03-08T01:08:49;45.25;29.50;18.00
62599;PMS7003;48671;48.922;2.346;2024-03-08T01:11:16;33.75;23.50;18.25
62599;PMS7003;48671;48.922;2.346;2024-03-08T01:13:43;45.00;37.75;24.50
62599;PMS7003;48671;48.922;2.346;2024-03-08T01:16:08;52.75;38.00;22.50
62599;PMS7003;48671;48.922;2.346;2024-03-08T01:18:33;41.00;30.75;17.50
62599;PMS7003;48671;48.922;2.346;2024-03-08T01:20:59;43.00;30.50;14.50
62599;PMS7003;48671;48.922;2.346;2024-03-08T01:23:24;46.25;40.50;25.00
62599;PMS7003;48671;48.922;2.346;2024-03-08T01:25:50;42.50;34.75;20.50
62599;PMS7003;48671;48.922;2.346;2024-03-08T01:28:21;41.75;29.25;14.25
62599;PMS7003;48671;48.922;2.346;2024-03-08T01:30:48;52.25;37.00;21.50
62599;PMS7003;48671;48.922;2.346;2024-03-08T01:33:15;42.25;35.75;23.25
62599;PMS7003;48671;48.922;2.346;2024-03-08T01:35:40;47.75;35.25;23.25
62599;PMS7003;48671;48.922;2.346;2024-03-08T01:38:06;41.50;36.75;22.75
62599;PMS7003;48671;48.922;2.346;2024-03-08T01:40:32;51.00;38.50;23.75
62599;PMS7003;48671;48.922;2.346;2024-03-08T01:42:57;59.33;40.00;26.33
62599;PMS7003;48671;48.922;2.346;2024-03-08T01:45:22;47.00;39.25;22.50
62599;PMS7003;48671;48.922;2.346;2024-03-08T01:47:48;43.33;34.33;23.00
62599;PMS7003;48671;48.922;2.346;2024-03-08T01:50:13;43.00;34.00;23.50
62599;PMS7003;48671;48.922;2.346;2024-03-08T01:52:40;52.75;40.00;25.75
62599;PMS7003;48671;48.922;2.346;2024-03-08T01:55:07;51.75;38.75;25.25
62599;PMS7003;48671;48.922;2.346;2024-03-08T01:57:33;36.50;28.50;16.75
62599;PMS7003;48671;48.922;2.346;2024-03-08T01:59:59;48.00;37.50;20.50
62599;PMS7003;48671;48.922;2.346;2024-03-08T02:02:27;45.75;32.00;21.25
62599;PMS7003;48671;48.922;2.346;2024-03-08T02:04:53;52.25;39.00;22.75
62599;PMS7003;48671;48.922;2.346;2024-03-08T02:07:19;56.00;36.50;24.00
62599;PMS7003;48671;48.922;2.346;2024-03-08T02:09:44;34.67;26.33;9.00
62599;PMS7003;48671;48.922;2.346;2024-03-08T02:12:10;47.75;39.75;24.00
62599;PMS7003;48671;48.922;2.346;2024-03-08T02:14:35;40.75;33.75;20.50
62599;PMS7003;48671;48.922;2.346;2024-03-08T02:17:01;44.75;30.75;17.75
62599;PMS7003;48671;48.922;2.346;2024-03-08T02:19:27;54.25;39.75;23.50
62599;PMS7003;48671;48.922;2.346;2024-03-08T02:21:52;48.33;37.67;24.00
62599;PMS7003;48671;48.922;2.346;2024-03-08T02:24:18;47.25;33.25;20.75
62599;PMS7003;48671;48.922;2.346;2024-03-08T02:26:44;47.25;38.25;24.50
62599;PMS7003;48671;48.922;2.346;2024-03-08T02:29:09;46.25;35.75;22.50
62599;PMS7003;48671;48.922;2.346;2024-03-08T02:31:35;46.75;31.50;19.50
62599;PMS7003;48671;48.922;2.346;2024-03-08T02:34:00;54.33;35.00;19.00
62599;PMS7003;48671;48.922;2.346;2024-03-08T02:36:25;44.50;35.50;23.50
62599;PMS7003;48671;48.922;2.346;2024-03-08T02:38:51;45.25;35.50;21.00
62599;PMS7003;48671;48.922;2.346;2024-03-08T02:41:16;49.67;31.00;20.00
62599;PMS7003;48671;48.922;2.346;2024-03-08T02:43:41;50.33;39.67;24.00
62599;PMS7003;48671;48.922;2.346;2024-03-08T02:46:07;55.00;38.50;23.50
62599;PMS7003;48671;48.922;2.346;2024-03-08T02:48:32;51.00;39.25;24.50
62599;PMS7003;48671;48.922;2.346;2024-03-08T02:50:58;41.75;34.00;23.00
62599;PMS7003;48671;48.922;2.346;2024-03-08T02:53:23;44.50;30.50;18.25
62599;PMS7003;48671;48.922;2.346;2024-03-08T02:55:49;49.50;39.75;22.25
62599;PMS7003;48671;48.922;2.346;2024-03-08T02:58:15;42.75;22.25;12.75
62599;PMS7003;48671;48.922;2.346;2024-03-08T03:00:40;27.75;27.00;20.00
62599;PMS7003;48671;48.922;2.346;2024-03-08T03:03:06;44.00;34.00;22.00
62599;PMS7003;48671;48.922;2.346;2024-03-08T03:05:31;56.25;40.50;25.50
62599;PMS7003;48671;48.922;2.346;2024-03-08T03:07:57;44.00;35.00;22.25
62599;PMS7003;48671;48.922;2.346;2024-03-08T03:10:23;47.25;38.00;25.25
62599;PMS7003;48671;48.922;2.346;2024-03-08T03:12:49;67.25;38.50;26.00
62599;PMS7003;48671;48.922;2.346;2024-03-08T03:15:14;53.00;34.00;20.00
62599;PMS7003;48671;48.922;2.346;2024-03-08T03:17:45;44.00;33.25;21.25
62599;PMS7003;48671;48.922;2.346;2024-03-08T03:20:11;50.00;31.25;19.00
62599;PMS7003;48671;48.922;2.346;2024-03-08T03:22:40;40.75;33.75;22.75
62599;PMS7003;48671;48.922;2.346;2024-03-08T03:25:06;40.00;28.25;16.25
62599;PMS7003;48671;48.922;2.346;2024-03-08T03:27:35;50.00;38.00;20.75
62599;PMS7003;48671;48.922;2.346;2024-03-08T03:30:02;58.50;37.50;23.00
62599;PMS7003;48671;48.922;2.346;2024-03-08T03:32:45;41.50;33.00;21.25
62599;PMS7003;48671;48.922;2.346;2024-03-08T03:35:15;53.50;35.00;21.75
62599;PMS7003;48671;48.922;2.346;2024-03-08T03:37:42;45.50;39.25;25.00
62599;PMS7003;48671;48.922;2.346;2024-03-08T03:40:10;54.00;41.00;23.00
62599;PMS7003;48671;48.922;2.346;2024-03-08T03:42:36;39.75;31.75;20.75
62599;PMS7003;48671;48.922;2.346;2024-03-08T03:45:03;58.25;38.25;21.75
62599;PMS7003;48671;48.922;2.346;2024-03-08T03:47:30;56.75;37.25;23.00
62599;PMS7003;48671;48.922;2.346;2024-03-08T03:49:55;48.33;40.33;25.33
62599;PMS7003;48671;48.922;2.346;2024-03-08T03:52:21;46.25;34.50;21.75
62599;PMS7003;48671;48.922;2.346;2024-03-08T03:54:46;48.50;38.00;25.75
62599;PMS7003;48671;48.922;2.346;2024-03-08T03:57:12;50.00;37.67;20.00
62599;PMS7003;48671;48.922;2.346;2024-03-08T03:59:37;38.75;30.25;18.25
62599;PMS7003;48671;48.922;2.346;2024-03-08T04:02:02;52.50;40.00;23.50
62599;PMS7003;48671;48.922;2.346;2024-03-08T04:04:29;59.50;37.00;20.50
62599;PMS7003;48671;48.922;2.346;2024-03-08T04:06:54;56.50;38.25;20.00
62599;PMS7003;48671;48.922;2.346;2024-03-08T04:09:19;53.00;39.00;23.00
62599;PMS7003;48671;48.922;2.346;2024-03-08T04:11:47;49.75;37.00;23.75
62599;PMS7003;48671;48.922;2.346;2024-03-08T04:14:12;46.50;32.00;19.75
62599;PMS7003;48671;48.922;2.346;2024-03-08T04:16:38;40.25;28.00;17.00
62599;PMS7003;48671;48.922;2.346;2024-03-08T04:19:03;52.00;38.50;23.00
62599;PMS7003;48671;48.922;2.346;2024-03-08T04:21:32;50.75;35.50;20.00
62599;PMS7003;48671;48.922;2.346;2024-03-08T04:23:57;46.25;36.25;20.25
62599;PMS7003;48671;48.922;2.346;2024-03-08T04:26:23;46.50;40.75;24.25
62599;PMS7003;48671;48.922;2.346;2024-03-08T04:28:48;51.50;36.75;24.00
62599;PMS7003;48671;48.922;2.346;2024-03-08T04:31:13;44.00;37.67;23.67
62599;PMS7003;48671;48.922;2.346;2024-03-08T04:33:40;48.00;34.25;23.75
62599;PMS7003;48671;48.922;2.346;2024-03-08T04:36:06;50.25;36.75;21.75
62599;PMS7003;48671;48.922;2.346;2024-03-08T04:38:32;43.25;35.00;22.00
62599;PMS7003;48671;48.922;2.346;2024-03-08T04:40:58;59.75;42.25;24.75
62599;PMS7003;48671;48.922;2.346;2024-03-08T04:43:24;45.00;39.75;25.25
62599;PMS7003;48671;48.922;2.346;2024-03-08T04:45:51;58.50;42.75;26.25
62599;PMS7003;48671;48.922;2.346;2024-03-08T04:48:17;52.25;36.50;21.25
62599;PMS7003;48671;48.922;2.346;2024-03-08T04:50:42;53.75;41.00;23.75
62599;PMS7003;48671;48.922;2.346;2024-03-08T04:53:09;52.00;41.50;26.50
62599;PMS7003;48671;48.922;2.346;2024-03-08T04:55:35;58.25;38.00;22.75
62599;PMS7003;48671;48.922;2.346;2024-03-08T04:58:00;38.00;33.00;19.00
62599;PMS7003;48671;48.922;2.346;2024-03-08T05:00:25;57.00;37.33;23.00
62599;PMS7003;48671;48.922;2.346;2024-03-08T05:02:51;50.25;40.75;23.00
62599;PMS7003;48671;48.922;2.346;2024-03-08T05:05:18;53.00;41.00;26.00
62599;PMS7003;48671;48.922;2.346;2024-03-08T05:07:43;48.25;38.00;23.00
62599;PMS7003;48671;48.922;2.346;2024-03-08T05:10:10;45.50;34.50;18.50
62599;PMS7003;48671;48.922;2.346;2024-03-08T05:12:36;57.50;40.50;26.75
62599;PMS7003;48671;48.922;2.346;2024-03-08T05:15:03;50.75;39.00;26.00
62599;PMS7003;48671;48.922;2.346;2024-03-08T05:17:30;59.50;42.50;27.25
62599;PMS7003;48671;48.922;2.346;2024-03-08T05:19:55;49.50;39.00;25.50
62599;PMS7003;48671;48.922;2.346;2024-03-08T05:22:20;59.67;37.67;24.00
62599;PMS7003;48671;48.922;2.346;2024-03-08T05:24:46;53.00;41.33;26.67
62599;PMS7003;48671;48.922;2.346;2024-03-08T05:27:11;39.50;26.75;15.75
62599;PMS7003;48671;48.922;2.346;2024-03-08T05:29:37;61.00;42.00;26.25
62599;PMS7003;48671;48.922;2.346;2024-03-08T05:32:03;48.00;40.00;25.25
62599;PMS7003;48671;48.922;2.346;2024-03-08T05:34:29;44.50;36.50;22.00
62599;PMS7003;48671;48.922;2.346;2024-03-08T05:36:54;37.50;27.75;16.00
62599;PMS7003;48671;48.922;2.346;2024-03-08T05:39:20;65.25;44.00;28.25
62599;PMS7003;48671;48.922;2.346;2024-03-08T05:41:45;51.50;39.00;22.50
62599;PMS7003;48671;48.922;2.346;2024-03-08T05:44:11;58.25;43.75;25.00
62599;PMS7003;48671;48.922;2.346;2024-03-08T05:46:38;50.25;40.50;26.50
62599;PMS7003;48671;48.922;2.346;2024-03-08T05:49:04;50.75;41.75;26.00
62599;PMS7003;48671;48.922;2.346;2024-03-08T05:51:33;51.75;42.00;25.75
62599;PMS7003;48671;48.922;2.346;2024-03-08T05:54:00;57.25;37.50;22.00
62599;PMS7003;48671;48.922;2.346;2024-03-08T05:56:27;40.00;33.25;21.50
62599;PMS7003;48671;48.922;2.346;2024-03-08T05:58:54;45.75;36.25;24.00
62599;PMS7003;48671;48.922;2.346;2024-03-08T06:01:19;56.75;37.50;25.25
62599;PMS7003;48671;48.922;2.346;2024-03-08T06:03:44;56.00;40.50;24.00
62599;PMS7003;48671;48.922;2.346;2024-03-08T06:06:13;61.00;44.50;28.00
62599;PMS7003;48671;48.922;2.346;2024-03-08T06:08:39;45.50;40.75;23.50
62599;PMS7003;48671;48.922;2.346;2024-03-08T06:11:05;51.50;36.25;23.50
62599;PMS7003;48671;48.922;2.346;2024-03-08T06:13:31;34.75;25.25;16.25
62599;PMS7003;48671;48.922;2.346;2024-03-08T06:15:57;52.00;34.00;20.00
62599;PMS7003;48671;48.922;2.346;2024-03-08T06:18:22;52.33;40.00;26.00
62599;PMS7003;48671;48.922;2.346;2024-03-08T06:20:47;42.50;35.00;23.50
62599;PMS7003;48671;48.922;2.346;2024-03-08T06:23:13;45.67;35.67;19.00
62599;PMS7003;48671;48.922;2.346;2024-03-08T06:25:42;58.25;42.50;27.50
62599;PMS7003;48671;48.922;2.346;2024-03-08T06:28:11;47.50;41.25;23.50
62599;PMS7003;48671;48.922;2.346;2024-03-08T06:30:36;62.25;40.25;25.00
62599;PMS7003;48671;48.922;2.346;2024-03-08T06:33:01;38.25;23.25;14.50
62599;PMS7003;48671;48.922;2.346;2024-03-08T06:35:27;51.50;37.25;22.00
62599;PMS7003;48671;48.922;2.346;2024-03-08T06:37:52;58.75;37.00;25.00
62599;PMS7003;48671;48.922;2.346;2024-03-08T06:40:18;58.00;38.25;25.00
62599;PMS7003;48671;48.922;2.346;2024-03-08T06:42:43;47.25;38.25;24.25
62599;PMS7003;48671;48.922;2.346;2024-03-08T06:45:09;44.25;29.00;12.50
62599;PMS7003;48671;48.922;2.346;2024-03-08T06:47:35;52.50;40.75;25.00
62599;PMS7003;48671;48.922;2.346;2024-03-08T06:50:01;59.50;41.00;25.00
62599;PMS7003;48671;48.922;2.346;2024-03-08T06:52:26;46.00;38.75;24.75
62599;PMS7003;48671;48.922;2.346;2024-03-08T06:54:52;51.25;38.75;25.25
62599;PMS7003;48671;48.922;2.346;2024-03-08T06:57:18;58.00;34.75;22.50
62599;PMS7003;48671;48.922;2.346;2024-03-08T06:59:45;48.00;40.75;24.75
62599;PMS7003;48671;48.922;2.346;2024-03-08T07:02:11;54.25;40.25;26.25
62599;PMS7003;48671;48.922;2.346;2024-03-08T07:04:36;56.25;38.75;25.00
62599;PMS7003;48671;48.922;2.346;2024-03-08T07:07:05;56.00;41.00;25.00
62599;PMS7003;48671;48.922;2.346;2024-03-08T07:09:35;53.25;40.00;25.25
62599;PMS7003;48671;48.922;2.346;2024-03-08T07:12:03;55.00;39.00;23.75
62599;PMS7003;48671;48.922;2.346;2024-03-08T07:14:29;58.75;45.75;28.25
62599;PMS7003;48671;48.922;2.346;2024-03-08T07:16:56;51.75;37.50;27.00
62599;PMS7003;48671;48.922;2.346;2024-03-08T07:19:21;47.50;38.75;25.00
62599;PMS7003;48671;48.922;2.346;2024-03-08T07:21:46;61.67;44.67;27.00
62599;PMS7003;48671;48.922;2.346;2024-03-08T07:24:12;51.75;39.75;23.00
62599;PMS7003;48671;48.922;2.346;2024-03-08T07:27:04;60.25;41.25;26.00
62599;PMS7003;48671;48.922;2.346;2024-03-08T07:29:33;45.00;37.00;20.25
62599;PMS7003;48671;48.922;2.346;2024-03-08T07:32:00;46.25;36.75;23.25
62599;PMS7003;48671;48.922;2.346;2024-03-08T07:34:25;57.00;39.75;25.25
62599;PMS7003;48671;48.922;2.346;2024-03-08T07:36:50;58.50;41.25;25.00
62599;PMS7003;48671;48.922;2.346;2024-03-08T07:39:16;57.75;41.50;27.75
62599;PMS7003;48671;48.922;2.346;2024-03-08T07:41:42;51.75;40.25;25.25
62599;PMS7003;48671;48.922;2.346;2024-03-08T07:44:07;56.00;39.67;26.00
62599;PMS7003;48671;48.922;2.346;2024-03-08T07:46:32;61.75;43.00;26.25
62599;PMS7003;48671;48.922;2.346;2024-03-08T07:49:02;60.75;39.75;25.50
62599;PMS7003;48671;48.922;2.346;2024-03-08T07:51:28;59.50;40.00;23.75
62599;PMS7003;48671;48.922;2.346;2024-03-08T07:53:53;56.00;38.75;25.00
62599;PMS7003;48671;48.922;2.346;2024-03-08T07:56:19;59.50;41.00;24.75
62599;PMS7003;48671;48.922;2.346;2024-03-08T07:58:46;56.50;39.00;24.00
62599;PMS7003;48671;48.922;2.346;2024-03-08T08:01:15;55.25;39.00;24.00
62599;PMS7003;48671;48.922;2.346;2024-03-08T08:03:45;48.25;36.75;20.50
62599;PMS7003;48671;48.922;2.346;2024-03-08T08:06:10;57.00;41.75;25.75
62599;PMS7003;48671;48.922;2.346;2024-03-08T08:08:41;58.75;42.50;26.50
62599;PMS7003;48671;48.922;2.346;2024-03-08T08:11:09;51.50;36.50;25.50
62599;PMS7003;48671;48.922;2.346;2024-03-08T08:13:40;52.25;40.25;25.25
62599;PMS7003;48671;48.922;2.346;2024-03-08T08:16:07;50.75;40.25;24.25
62599;PMS7003;48671;48.922;2.346;2024-03-08T08:18:32;58.25;40.00;25.00
62599;PMS7003;48671;48.922;2.346;2024-03-08T08:20:58;54.00;34.25;20.75
62599;PMS7003;48671;48.922;2.346;2024-03-08T08:23:25;45.50;37.50;21.00
62599;PMS7003;48671;48.922;2.346;2024-03-08T08:25:50;44.75;37.00;22.25
62599;PMS7003;48671;48.922;2.346;2024-03-08T08:28:16;48.75;39.50;25.00
62599;PMS7003;48671;48.922;2.346;2024-03-08T08:30:45;49.25;35.75;21.75
62599;PMS7003;48671;48.922;2.346;2024-03-08T08:33:11;39.75;32.50;17.75
62599;PMS7003;48671;48.922;2.346;2024-03-08T08:35:36;48.00;37.67;23.33
62599;PMS7003;48671;48.922;2.346;2024-03-08T08:38:05;42.50;33.75;19.25
62599;PMS7003;48671;48.922;2.346;2024-03-08T08:40:32;46.25;38.25;22.00
62599;PMS7003;48671;48.922;2.346;2024-03-08T08:42:58;47.75;33.00;21.25
62599;PMS7003;48671;48.922;2.346;2024-03-08T08:45:24;45.00;36.00;22.25
62599;PMS7003;48671;48.922;2.346;2024-03-08T08:47:51;40.75;31.75;19.00
62599;PMS7003;48671;48.922;2.346;2024-03-08T08:50:17;58.25;37.50;24.50
62599;PMS7003;48671;48.922;2.346;2024-03-08T08:52:47;34.25;28.00;14.25
62599;PMS7003;48671;48.922;2.346;2024-03-08T08:55:13;35.00;25.75;18.00
62599;PMS7003;48671;48.922;2.346;2024-03-08T08:57:39;50.50;39.00;25.75
62599;PMS7003;48671;48.922;2.346;2024-03-08T09:00:09;36.00;28.00;21.75
62599;PMS7003;48671;48.922;2.346;2024-03-08T09:02:40;38.75;30.00;19.50
62599;PMS7003;48671;48.922;2.346;2024-03-08T09:05:06;36.75;32.25;20.00
62599;PMS7003;48671;48.922;2.346;2024-03-08T09:07:32;56.75;36.25;22.00
62599;PMS7003;48671;48.922;2.346;2024-03-08T09:09:59;41.00;33.25;21.50
62599;PMS7003;48671;48.922;2.346;2024-03-08T09:12:25;40.00;35.75;20.50
62599;PMS7003;48671;48.922;2.346;2024-03-08T09:14:50;40.00;33.50;19.75
62599;PMS7003;48671;48.922;2.346;2024-03-08T09:17:16;44.25;34.50;22.75
62599;PMS7003;48671;48.922;2.346;2024-03-08T09:19:47;37.00;32.75;20.25
62599;PMS7003;48671;48.922;2.346;2024-03-08T09:22:13;53.25;37.00;19.75
62599;PMS7003;48671;48.922;2.346;2024-03-08T09:24:38;33.75;26.50;18.75
62599;PMS7003;48671;48.922;2.346;2024-03-08T09:27:04;40.25;31.25;19.50
62599;PMS7003;48671;48.922;2.346;2024-03-08T09:29:29;41.75;32.50;19.00
62599;PMS7003;48671;48.922;2.346;2024-03-08T09:31:55;34.33;31.67;21.67
62599;PMS7003;48671;48.922;2.346;2024-03-08T09:34:20;38.25;25.75;13.00
62599;PMS7003;48671;48.922;2.346;2024-03-08T09:36:46;24.75;20.75;16.00
62599;PMS7003;48671;48.922;2.346;2024-03-08T09:39:11;32.50;26.75;19.00
62599;PMS7003;48671;48.922;2.346;2024-03-08T09:41:42;39.50;30.25;19.00
62599;PMS7003;48671;48.922;2.346;2024-03-08T09:44:08;43.25;34.00;19.50
62599;PMS7003;48671;48.922;2.346;2024-03-08T09:46:34;37.50;26.00;17.50
62599;PMS7003;48671;48.922;2.346;2024-03-08T09:48:59;30.50;27.25;19.75
62599;PMS7003;48671;48.922;2.346;2024-03-08T09:51:27;34.75;26.50;16.00
62599;PMS7003;48671;48.922;2.346;2024-03-08T09:53:53;30.50;25.25;17.25
62599;PMS7003;48671;48.922;2.346;2024-03-08T09:56:19;34.33;31.00;20.00
62599;PMS7003;48671;48.922;2.346;2024-03-08T09:58:46;37.25;31.25;19.75
62599;PMS7003;48671;48.922;2.346;2024-03-08T10:01:30;35.25;29.75;17.00
62599;PMS7003;48671;48.922;2.346;2024-03-08T10:03:56;28.50;25.00;16.50
62599;PMS7003;48671;48.922;2.346;2024-03-08T10:06:22;38.75;27.50;17.75
62599;PMS7003;48671;48.922;2.346;2024-03-08T10:08:49;39.50;31.00;19.50
62599;PMS7003;48671;48.922;2.346;2024-03-08T10:11:16;31.25;23.25;16.00
62599;PMS7003;48671;48.922;2.346;2024-03-08T10:13:42;32.50;27.75;20.00
62599;PMS7003;48671;48.922;2.346;2024-03-08T10:16:09;25.75;24.00;16.00
62599;PMS7003;48671;48.922;2.346;2024-03-08T10:18:34;33.67;25.33;17.00
62599;PMS7003;48671;48.922;2.346;2024-03-08T10:21:03;39.25;27.25;14.50
62599;PMS7003;48671;48.922;2.346;2024-03-08T10:23:30;29.25;22.75;16.00
62599;PMS7003;48671;48.922;2.346;2024-03-08T10:25:57;30.00;25.75;17.75
62599;PMS7003;48671;48.922;2.346;2024-03-08T10:28:23;30.50;23.50;15.50
62599;PMS7003;48671;48.922;2.346;2024-03-08T10:30:53;29.25;21.50;13.75
62599;PMS7003;48671;48.922;2.346;2024-03-08T10:33:21;25.50;21.50;13.00
62599;PMS7003;48671;48.922;2.346;2024-03-08T10:35:46;25.25;14.50;8.75
62599;PMS7003;48671;48.922;2.346;2024-03-08T10:38:11;31.75;25.50;17.50
62599;PMS7003;48671;48.922;2.346;2024-03-08T10:40:45;25.25;19.25;12.75
62599;PMS7003;48671;48.922;2.346;2024-03-08T10:43:13;21.00;17.25;10.00
62599;PMS7003;48671;48.922;2.346;2024-03-08T10:45:49;10.50;10.25;9.00
62599;PMS7003;48671;48.922;2.346;2024-03-08T10:48:26;25.25;20.00;13.00
62599;PMS7003;48671;48.922;2.346;2024-03-08T10:50:56;25.75;16.00;9.75
62599;PMS7003;48671;48.922;2.346;2024-03-08T10:53:22;17.75;14.50;12.50
62599;PMS7003;48671;48.922;2.346;2024-03-08T10:55:49;21.75;19.75;12.75
62599;PMS7003;48671;48.922;2.346;2024-03-08T10:58:18;20.50;20.25;10.00
62599;PMS7003;48671;48.922;2.346;2024-03-08T11:00:47;19.50;17.50;13.00
62599;PMS7003;48671;48.922;2.346;2024-03-08T11:08:41;24.00;19.25;12.50
62599;PMS7003;48671;48.922;2.346;2024-03-08T11:11:22;17.25;15.00;8.50
62599;PMS7003;48671;48.922;2.346;2024-03-08T11:13:52;17.25;14.25;8.25
62599;PMS7003;48671;48.922;2.346;2024-03-08T11:18:50;19.50;17.75;11.25
62599;PMS7003;48671;48.922;2.346;2024-03-08T11:21:18;21.25;17.50;11.25
62599;PMS7003;48671;48.922;2.346;2024-03-08T11:23:43;17.25;17.00;10.75
62599;PMS7003;48671;48.922;2.346;2024-03-08T11:26:19;16.25;14.50;9.00
62599;PMS7003;48671;48.922;2.346;2024-03-08T11:28:45;17.00;14.75;11.75
62599;PMS7003;48671;48.922;2.346;2024-03-08T11:33:37;19.00;15.50;10.00
62599;PMS7003;48671;48.922;2.346;2024-03-08T11:36:11;17.25;13.00;8.00
62599;PMS7003;48671;48.922;2.346;2024-03-08T11:38:50;23.00;20.00;13.75
62599;PMS7003;48671;48.922;2.346;2024-03-08T11:41:21;15.25;13.75;7.00
62599;PMS7003;48671;48.922;2.346;2024-03-08T11:43:48;14.75;13.25;9.00
62599;PMS7003;48671;48.922;2.346;2024-03-08T11:46:15;22.25;16.75;10.25
62599;PMS7003;48671;48.922;2.346;2024-03-08T11:48:42;21.50;15.75;10.00
62599;PMS7003;48671;48.922;2.346;2024-03-08T11:51:10;20.50;16.00;11.25
62599;PMS7003;48671;48.922;2.346;2024-03-08T11:53:37;22.00;17.00;11.75
62599;PMS7003;48671;48.922;2.346;2024-03-08T11:56:12;13.00;10.25;7.00
62599;PMS7003;48671;48.922;2.346;2024-03-08T11:58:39;15.25;14.25;10.50
62599;PMS7003;48671;48.922;2.346;2024-03-08T12:01:06;20.50;16.00;10.25
62599;PMS7003;48671;48.922;2.346;2024-03-08T12:03:32;20.75;15.00;9.00
62599;PMS7003;48671;48.922;2.346;2024-03-08T12:06:03;14.50;14.50;11.00
62599;PMS7003;48671;48.922;2.346;2024-03-08T12:08:32;24.25;19.75;11.00
62599;PMS7003;48671;48.922;2.346;2024-03-08T12:10:57;17.25;14.75;9.50
62599;PMS7003;48671;48.922;2.346;2024-03-08T12:13:29;17.25;15.75;9.25
62599;PMS7003;48671;48.922;2.346;2024-03-08T12:16:00;17.50;13.50;10.00
62599;PMS7003;48671;48.922;2.346;2024-03-08T12:18:32;17.25;14.50;11.50
62599;PMS7003;48671;48.922;2.346;2024-03-08T12:21:12;18.00;15.75;10.75
62599;PMS7003;48671;48.922;2.346;2024-03-08T12:23:44;21.25;19.25;12.25
62599;PMS7003;48671;48.922;2.346;2024-03-08T12:26:13;19.50;15.25;9.75
62599;PMS7003;48671;48.922;2.346;2024-03-08T12:28:44;19.00;13.50;9.25
62599;PMS7003;48671;48.922;2.346;2024-03-08T12:31:13;23.25;18.00;11.00
62599;PMS7003;48671;48.922;2.346;2024-03-08T12:33:51;18.50;15.50;12.00
62599;PMS7003;48671;48.922;2.346;2024-03-08T12:36:24;17.25;13.75;10.75
62599;PMS7003;48671;48.922;2.346;2024-03-08T12:38:50;12.75;11.00;8.75
62599;PMS7003;48671;48.922;2.346;2024-03-08T12:41:16;17.25;16.00;10.00
62599;PMS7003;48671;48.922;2.346;2024-03-08T12:43:44;13.25;12.00;9.75
62599;PMS7003;48671;48.922;2.346;2024-03-08T12:46:14;18.50;14.75;9.00
62599;PMS7003;48671;48.922;2.346;2024-03-08T12:48:45;17.25;13.00;8.75
62599;PMS7003;48671;48.922;2.346;2024-03-08T12:51:12;18.75;17.25;11.50
62599;PMS7003;48671;48.922;2.346;2024-03-08T12:53:38;16.25;15.25;11.00
62599;PMS7003;48671;48.922;2.346;2024-03-08T12:56:05;13.25;10.75;7.25
62599;PMS7003;48671;48.922;2.346;2024-03-08T12:58:33;17.25;12.00;9.00
62599;PMS7003;48671;48.922;2.346;2024-03-08T13:00:59;19.75;13.75;9.75
62599;PMS7003;48671;48.922;2.346;2024-03-08T13:03:25;19.00;14.75;10.00
62599;PMS7003;48671;48.922;2.346;2024-03-08T13:05:50;17.00;13.00;9.00
62599;PMS7003;48671;48.922;2.346;2024-03-08T13:08:16;21.50;15.00;11.00
62599;PMS7003;48671;48.922;2.346;2024-03-08T13:10:43;14.50;12.75;9.25
62599;PMS7003;48671;48.922;2.346;2024-03-08T13:13:11;15.75;14.75;11.00
62599;PMS7003;48671;48.922;2.346;2024-03-08T13:15:37;13.00;10.50;8.00
62599;PMS7003;48671;48.922;2.346;2024-03-08T13:18:05;17.50;13.50;9.50
62599;PMS7003;48671;48.922;2.346;2024-03-08T13:20:33;14.25;13.75;10.00
62599;PMS7003;48671;48.922;2.346;2024-03-08T13:23:02;13.00;12.00;8.50
62599;PMS7003;48671;48.922;2.346;2024-03-08T13:25:28;18.00;13.25;9.75
62599;PMS7003;48671;48.922;2.346;2024-03-08T13:27:53;14.25;14.25;9.25
62599;PMS7003;48671;48.922;2.346;2024-03-08T13:30:21;15.00;14.75;10.00
62599;PMS7003;48671;48.922;2.346;2024-03-08T13:32:51;7.75;7.75;6.50
62599;PMS7003;48671;48.922;2.346;2024-03-08T13:35:17;13.00;10.75;7.75
62599;PMS7003;48671;48.922;2.346;2024-03-08T13:37:49;12.75;12.25;8.75
62599;PMS7003;48671;48.922;2.346;2024-03-08T13:40:15;8.50;6.00;4.25
62599;PMS7003;48671;48.922;2.346;2024-03-08T13:42:43;17.75;12.75;10.00
62599;PMS7003;48671;48.922;2.346;2024-03-08T13:45:09;12.25;9.00;8.00
62599;PMS7003;48671;48.922;2.346;2024-03-08T13:47:39;11.25;9.25;6.00
62599;PMS7003;48671;48.922;2.346;2024-03-08T13:50:06;13.00;9.75;7.75
62599;PMS7003;48671;48.922;2.346;2024-03-08T13:52:33;12.25;10.50;8.75
62599;PMS7003;48671;48.922;2.346;2024-03-08T13:54:59;11.25;9.50;8.50